sensor_id;sensor_type;location;lat;lon;timestamp;P1;durP1;ratioP1;P2;durP2;ratioP2
24617;SDS011;12762;51.730;5.356;2022-09-30T00:01:13;21.60;;;14.03;;
24617;SDS011;12762;51.730;5.356;2022-09-30T00:03:40;24.37;;;15.30;;
24617;SDS011;12762;51.730;5.356;2022-09-30T00:06:07;19.23;;;12.87;;
24617;SDS011;12762;51.730;5.356;2022-09-30T00:08:35;24.10;;;15.07;;
24617;SDS011;12762;51.730;5.356;2022-09-30T00:11:06;19.87;;;13.43;;
24617;SDS011;12762;51.730;5.356;2022-09-30T00:13:37;18.50;;;13.17;;
24617;SDS011;12762;51.730;5.356;2022-09-30T00:16:05;20.37;;;12.50;;
24617;SDS011;12762;51.730;5.356;2022-09-30T00:18:34;18.93;;;12.33;;
24617;SDS011;12762;51.730;5.356;2022-09-30T00:21:02;19.60;;;11.70;;
24617;SDS011;12762;51.730;5.356;2022-09-30T00:23:30;18.37;;;12.13;;
24617;SDS011;12762;51.730;5.356;2022-09-30T00:25:58;16.93;;;11.30;;
24617;SDS011;12762;51.730;5.356;2022-09-30T00:28:32;18.63;;;12.17;;
24617;SDS011;12762;51.730;5.356;2022-09-30T00:31:00;16.07;;;11.23;;
24617;SDS011;12762;51.730;5.356;2022-09-30T00:33:30;19.70;;;12.03;;
24617;SDS011;12762;51.730;5.356;2022-09-30T00:35:58;17.07;;;12.03;;
24617;SDS011;12762;51.730;5.356;2022-09-30T00:38:28;20.47;;;12.10;;
24617;SDS011;12762;51.730;5.356;2022-09-30T00:40:56;17.03;;;11.17;;
24617;SDS011;12762;51.730;5.356;2022-09-30T00:43:40;18.03;;;11.23;;
24617;SDS011;12762;51.730;5.356;2022-09-30T00:46:36;14.20;;;10.90;;
24617;SDS011;12762;51.730;5.356;2022-09-30T00:49:11;18.43;;;12.37;;
24617;SDS011;12762;51.730;5.356;2022-09-30T00:51:45;18.97;;;12.83;;
24617;SDS011;12762;51.730;5.356;2022-09-30T00:54:18;17.63;;;12.50;;
24617;SDS011;12762;51.730;5.356;2022-09-30T00:56:49;20.93;;;12.50;;
24617;SDS011;12762;51.730;5.356;2022-09-30T00:59:26;19.50;;;13.00;;
24617;SDS011;12762;51.730;5.356;2022-09-30T01:01:58;19.10;;;12.83;;
24617;SDS011;12762;51.730;5.356;2022-09-30T01:04:29;17.63;;;12.07;;
24617;SDS011;12762;51.730;5.356;2022-09-30T01:06:58;18.93;;;12.40;;
24617;SDS011;12762;51.730;5.356;2022-09-30T01:09:34;19.40;;;13.03;;
24617;SDS011;12762;51.730;5.356;2022-09-30T01:12:11;19.70;;;13.30;;
24617;SDS011;12762;51.730;5.356;2022-09-30T01:14:45;23.00;;;13.20;;
24617;SDS011;12762;51.730;5.356;2022-09-30T01:20:10;15.67;;;11.47;;
24617;SDS011;12762;51.730;5.356;2022-09-30T01:31:20;16.10;;;11.90;;
24617;SDS011;12762;51.730;5.356;2022-09-30T01:36:48;19.47;;;12.07;;
24617;SDS011;12762;51.730;5.356;2022-09-30T01:42:38;16.37;;;11.17;;
24617;SDS011;12762;51.730;5.356;2022-09-30T01:45:09;17.10;;;10.83;;
24617;SDS011;12762;51.730;5.356;2022-09-30T01:59:05;15.23;;;11.03;;
24617;SDS011;12762;51.730;5.356;2022-09-30T02:01:41;18.07;;;12.60;;
24617;SDS011;12762;51.730;5.356;2022-09-30T02:07:04;17.40;;;11.50;;
24617;SDS011;12762;51.730;5.356;2022-09-30T02:09:47;17.27;;;11.73;;
24617;SDS011;12762;51.730;5.356;2022-09-30T02:12:27;18.03;;;11.37;;
24617;SDS011;12762;51.730;5.356;2022-09-30T02:15:07;17.90;;;12.00;;
24617;SDS011;12762;51.730;5.356;2022-09-30T02:17:38;18.73;;;12.10;;
24617;SDS011;12762;51.730;5.356;2022-09-30T02:20:21;17.53;;;11.83;;
24617;SDS011;12762;51.730;5.356;2022-09-30T02:22:55;15.77;;;11.43;;
24617;SDS011;12762;51.730;5.356;2022-09-30T02:25:38;17.30;;;11.17;;
24617;SDS011;12762;51.730;5.356;2022-09-30T02:28:18;17.47;;;11.00;;
24617;SDS011;12762;51.730;5.356;2022-09-30T02:30:49;14.13;;;10.43;;
24617;SDS011;12762;51.730;5.356;2022-09-30T02:33:23;14.07;;;10.23;;
24617;SDS011;12762;51.730;5.356;2022-09-30T02:36:01;15.63;;;11.03;;
24617;SDS011;12762;51.730;5.356;2022-09-30T02:38:50;18.53;;;11.73;;
24617;SDS011;12762;51.730;5.356;2022-09-30T02:41:26;15.83;;;11.17;;
24617;SDS011;12762;51.730;5.356;2022-09-30T02:43:56;15.90;;;11.00;;
24617;SDS011;12762;51.730;5.356;2022-09-30T02:51:44;16.27;;;11.43;;
24617;SDS011;12762;51.730;5.356;2022-09-30T02:54:35;16.57;;;11.13;;
24617;SDS011;12762;51.730;5.356;2022-09-30T02:57:17;17.47;;;11.73;;
24617;SDS011;12762;51.730;5.356;2022-09-30T02:59:56;15.87;;;10.37;;
24617;SDS011;12762;51.730;5.356;2022-09-30T03:02:28;13.20;;;9.97;;
24617;SDS011;12762;51.730;5.356;2022-09-30T03:04:55;13.27;;;9.53;;
24617;SDS011;12762;51.730;5.356;2022-09-30T03:07:21;13.23;;;10.03;;
24617;SDS011;12762;51.730;5.356;2022-09-30T03:09:49;16.77;;;10.27;;
24617;SDS011;12762;51.730;5.356;2022-09-30T03:12:32;14.03;;;9.33;;
24617;SDS011;12762;51.730;5.356;2022-09-30T03:26:20;16.97;;;11.77;;
24617;SDS011;12762;51.730;5.356;2022-09-30T03:31:49;20.27;;;12.43;;
24617;SDS011;12762;51.730;5.356;2022-09-30T03:37:15;19.27;;;13.00;;
24617;SDS011;12762;51.730;5.356;2022-09-30T03:40:01;20.93;;;12.50;;
24617;SDS011;12762;51.730;5.356;2022-09-30T03:42:42;20.40;;;13.53;;
24617;SDS011;12762;51.730;5.356;2022-09-30T03:45:17;20.13;;;13.57;;
24617;SDS011;12762;51.730;5.356;2022-09-30T03:47:55;19.77;;;13.37;;
24617;SDS011;12762;51.730;5.356;2022-09-30T03:50:26;20.97;;;13.23;;
24617;SDS011;12762;51.730;5.356;2022-09-30T03:52:54;18.43;;;13.20;;
24617;SDS011;12762;51.730;5.356;2022-09-30T03:55:21;24.90;;;14.03;;
24617;SDS011;12762;51.730;5.356;2022-09-30T03:57:49;16.67;;;11.03;;
24617;SDS011;12762;51.730;5.356;2022-09-30T04:00:16;18.80;;;12.97;;
24617;SDS011;12762;51.730;5.356;2022-09-30T04:02:44;18.33;;;13.33;;
24617;SDS011;12762;51.730;5.356;2022-09-30T04:05:11;20.77;;;13.87;;
24617;SDS011;12762;51.730;5.356;2022-09-30T04:07:38;21.17;;;14.00;;
24617;SDS011;12762;51.730;5.356;2022-09-30T04:10:12;22.97;;;13.53;;
24617;SDS011;12762;51.730;5.356;2022-09-30T04:12:39;20.30;;;13.90;;
24617;SDS011;12762;51.730;5.356;2022-09-30T04:15:05;19.87;;;13.80;;
24617;SDS011;12762;51.730;5.356;2022-09-30T04:17:33;24.30;;;13.80;;
24617;SDS011;12762;51.730;5.356;2022-09-30T04:19:59;20.90;;;14.93;;
24617;SDS011;12762;51.730;5.356;2022-09-30T04:22:26;23.43;;;12.40;;
24617;SDS011;12762;51.730;5.356;2022-09-30T04:24:53;22.63;;;14.73;;
24617;SDS011;12762;51.730;5.356;2022-09-30T04:27:20;19.63;;;12.87;;
24617;SDS011;12762;51.730;5.356;2022-09-30T04:29:47;24.80;;;13.83;;
24617;SDS011;12762;51.730;5.356;2022-09-30T04:32:13;20.90;;;13.37;;
24617;SDS011;12762;51.730;5.356;2022-09-30T04:34:40;19.97;;;13.00;;
24617;SDS011;12762;51.730;5.356;2022-09-30T04:37:07;18.37;;;12.60;;
24617;SDS011;12762;51.730;5.356;2022-09-30T04:39:36;19.53;;;12.97;;
24617;SDS011;12762;51.730;5.356;2022-09-30T04:42:03;20.20;;;13.23;;
24617;SDS011;12762;51.730;5.356;2022-09-30T04:44:29;22.30;;;13.47;;
24617;SDS011;12762;51.730;5.356;2022-09-30T04:46:56;23.70;;;14.40;;
24617;SDS011;12762;51.730;5.356;2022-09-30T04:49:23;25.67;;;15.00;;
24617;SDS011;12762;51.730;5.356;2022-09-30T04:51:50;22.90;;;15.30;;
24617;SDS011;12762;51.730;5.356;2022-09-30T04:54:19;26.40;;;15.67;;
24617;SDS011;12762;51.730;5.356;2022-09-30T04:56:45;28.70;;;16.87;;
24617;SDS011;12762;51.730;5.356;2022-09-30T04:59:12;30.87;;;17.60;;
24617;SDS011;12762;51.730;5.356;2022-09-30T05:01:39;30.97;;;18.70;;
24617;SDS011;12762;51.730;5.356;2022-09-30T05:04:07;28.47;;;18.37;;
24617;SDS011;12762;51.730;5.356;2022-09-30T05:06:35;27.20;;;16.27;;
24617;SDS011;12762;51.730;5.356;2022-09-30T05:09:02;32.40;;;18.73;;
24617;SDS011;12762;51.730;5.356;2022-09-30T05:11:29;30.37;;;17.87;;
24617;SDS011;12762;51.730;5.356;2022-09-30T05:13:56;28.03;;;17.57;;
24617;SDS011;12762;51.730;5.356;2022-09-30T05:16:22;27.13;;;16.67;;
24617;SDS011;12762;51.730;5.356;2022-09-30T05:18:49;27.33;;;16.23;;
24617;SDS011;12762;51.730;5.356;2022-09-30T05:21:17;23.50;;;15.27;;
24617;SDS011;12762;51.730;5.356;2022-09-30T05:23:47;20.03;;;12.93;;
24617;SDS011;12762;51.730;5.356;2022-09-30T05:26:14;24.20;;;15.53;;
24617;SDS011;12762;51.730;5.356;2022-09-30T05:28:41;27.27;;;16.57;;
24617;SDS011;12762;51.730;5.356;2022-09-30T05:31:08;27.93;;;17.53;;
24617;SDS011;12762;51.730;5.356;2022-09-30T05:33:38;27.20;;;17.70;;
24617;SDS011;12762;51.730;5.356;2022-09-30T05:36:08;26.07;;;17.10;;
24617;SDS011;12762;51.730;5.356;2022-09-30T05:38:38;26.33;;;15.50;;
24617;SDS011;12762;51.730;5.356;2022-09-30T05:41:06;26.10;;;16.40;;
24617;SDS011;12762;51.730;5.356;2022-09-30T05:43:37;26.10;;;16.60;;
24617;SDS011;12762;51.730;5.356;2022-09-30T05:46:13;24.90;;;16.13;;
24617;SDS011;12762;51.730;5.356;2022-09-30T05:48:41;26.60;;;16.20;;
24617;SDS011;12762;51.730;5.356;2022-09-30T05:51:08;29.63;;;17.00;;
24617;SDS011;12762;51.730;5.356;2022-09-30T05:53:36;33.03;;;18.17;;
24617;SDS011;12762;51.730;5.356;2022-09-30T05:56:04;28.30;;;18.23;;
24617;SDS011;12762;51.730;5.356;2022-09-30T05:58:32;28.97;;;15.97;;
24617;SDS011;12762;51.730;5.356;2022-09-30T06:01:13;28.70;;;16.93;;
24617;SDS011;12762;51.730;5.356;2022-09-30T06:03:41;24.10;;;14.67;;
24617;SDS011;12762;51.730;5.356;2022-09-30T06:06:09;27.87;;;17.40;;
24617;SDS011;12762;51.730;5.356;2022-09-30T06:08:36;29.80;;;18.93;;
24617;SDS011;12762;51.730;5.356;2022-09-30T06:11:07;33.27;;;20.13;;
24617;SDS011;12762;51.730;5.356;2022-09-30T06:13:39;34.87;;;19.83;;
24617;SDS011;12762;51.730;5.356;2022-09-30T06:16:10;32.50;;;19.90;;
24617;SDS011;12762;51.730;5.356;2022-09-30T06:18:37;33.93;;;18.97;;
24617;SDS011;12762;51.730;5.356;2022-09-30T06:21:07;33.87;;;21.40;;
24617;SDS011;12762;51.730;5.356;2022-09-30T06:23:36;36.73;;;20.10;;
24617;SDS011;12762;51.730;5.356;2022-09-30T06:26:06;36.47;;;20.73;;
24617;SDS011;12762;51.730;5.356;2022-09-30T06:28:36;37.77;;;22.13;;
24617;SDS011;12762;51.730;5.356;2022-09-30T06:31:04;43.13;;;23.33;;
24617;SDS011;12762;51.730;5.356;2022-09-30T06:33:32;43.43;;;23.67;;
24617;SDS011;12762;51.730;5.356;2022-09-30T06:35:59;40.63;;;23.93;;
24617;SDS011;12762;51.730;5.356;2022-09-30T06:38:30;38.07;;;23.30;;
24617;SDS011;12762;51.730;5.356;2022-09-30T06:40:58;40.57;;;23.00;;
24617;SDS011;12762;51.730;5.356;2022-09-30T06:43:26;42.00;;;22.77;;
24617;SDS011;12762;51.730;5.356;2022-09-30T06:45:59;43.07;;;24.50;;
24617;SDS011;12762;51.730;5.356;2022-09-30T06:48:41;39.57;;;23.27;;
24617;SDS011;12762;51.730;5.356;2022-09-30T06:51:11;43.10;;;24.33;;
24617;SDS011;12762;51.730;5.356;2022-09-30T06:53:38;41.47;;;24.43;;
24617;SDS011;12762;51.730;5.356;2022-09-30T06:56:05;40.80;;;24.47;;
24617;SDS011;12762;51.730;5.356;2022-09-30T06:58:32;40.50;;;23.37;;
24617;SDS011;12762;51.730;5.356;2022-09-30T07:01:00;41.10;;;24.37;;
24617;SDS011;12762;51.730;5.356;2022-09-30T07:03:30;40.17;;;23.47;;
24617;SDS011;12762;51.730;5.356;2022-09-30T07:06:03;40.13;;;24.90;;
24617;SDS011;12762;51.730;5.356;2022-09-30T07:08:32;42.23;;;24.90;;
24617;SDS011;12762;51.730;5.356;2022-09-30T07:11:06;43.40;;;25.30;;
24617;SDS011;12762;51.730;5.356;2022-09-30T07:13:37;42.10;;;25.10;;
24617;SDS011;12762;51.730;5.356;2022-09-30T07:16:04;46.97;;;26.80;;
24617;SDS011;12762;51.730;5.356;2022-09-30T07:18:32;42.63;;;25.90;;
24617;SDS011;12762;51.730;5.356;2022-09-30T07:20:59;46.33;;;27.83;;
24617;SDS011;12762;51.730;5.356;2022-09-30T07:23:26;47.13;;;28.80;;
24617;SDS011;12762;51.730;5.356;2022-09-30T07:25:58;46.27;;;28.73;;
24617;SDS011;12762;51.730;5.356;2022-09-30T07:28:28;50.03;;;27.37;;
24617;SDS011;12762;51.730;5.356;2022-09-30T07:30:59;45.07;;;27.70;;
24617;SDS011;12762;51.730;5.356;2022-09-30T07:33:51;45.50;;;27.70;;
24617;SDS011;12762;51.730;5.356;2022-09-30T07:36:22;44.47;;;28.07;;
24617;SDS011;12762;51.730;5.356;2022-09-30T07:38:58;48.83;;;29.27;;
24617;SDS011;12762;51.730;5.356;2022-09-30T07:41:26;48.70;;;28.27;;
24617;SDS011;12762;51.730;5.356;2022-09-30T07:43:54;46.10;;;29.13;;
24617;SDS011;12762;51.730;5.356;2022-09-30T07:46:29;51.47;;;30.47;;
24617;SDS011;12762;51.730;5.356;2022-09-30T07:48:58;61.37;;;34.73;;
24617;SDS011;12762;51.730;5.356;2022-09-30T07:51:37;59.70;;;35.97;;
24617;SDS011;12762;51.730;5.356;2022-09-30T07:54:06;48.23;;;29.90;;
24617;SDS011;12762;51.730;5.356;2022-09-30T07:56:34;49.17;;;31.67;;
24617;SDS011;12762;51.730;5.356;2022-09-30T07:59:27;37.60;;;25.67;;
24617;SDS011;12762;51.730;5.356;2022-09-30T08:01:55;29.67;;;20.87;;
24617;SDS011;12762;51.730;5.356;2022-09-30T08:04:22;31.40;;;20.23;;
24617;SDS011;12762;51.730;5.356;2022-09-30T08:06:54;29.13;;;21.67;;
24617;SDS011;12762;51.730;5.356;2022-09-30T08:09:25;25.10;;;18.70;;
24617;SDS011;12762;51.730;5.356;2022-09-30T08:11:55;28.33;;;18.37;;
24617;SDS011;12762;51.730;5.356;2022-09-30T08:14:25;24.13;;;17.90;;
24617;SDS011;12762;51.730;5.356;2022-09-30T08:16:52;21.13;;;16.70;;
24617;SDS011;12762;51.730;5.356;2022-09-30T08:19:25;24.10;;;16.30;;
24617;SDS011;12762;51.730;5.356;2022-09-30T08:21:53;21.23;;;16.17;;
24617;SDS011;12762;51.730;5.356;2022-09-30T08:24:20;20.70;;;14.77;;
24617;SDS011;12762;51.730;5.356;2022-09-30T08:26:50;18.07;;;13.00;;
24617;SDS011;12762;51.730;5.356;2022-09-30T08:29:20;20.20;;;12.17;;
24617;SDS011;12762;51.730;5.356;2022-09-30T08:32:07;19.53;;;13.37;;
24617;SDS011;12762;51.730;5.356;2022-09-30T08:34:35;16.03;;;12.77;;
24617;SDS011;12762;51.730;5.356;2022-09-30T08:37:02;17.97;;;12.93;;
24617;SDS011;12762;51.730;5.356;2022-09-30T08:39:35;16.40;;;12.90;;
24617;SDS011;12762;51.730;5.356;2022-09-30T08:45:16;17.83;;;12.77;;
24617;SDS011;12762;51.730;5.356;2022-09-30T08:51:11;14.87;;;11.30;;
24617;SDS011;12762;51.730;5.356;2022-09-30T08:53:55;14.37;;;10.90;;
24617;SDS011;12762;51.730;5.356;2022-09-30T08:56:25;14.77;;;10.40;;
24617;SDS011;12762;51.730;5.356;2022-09-30T08:59:23;14.87;;;11.43;;
24617;SDS011;12762;51.730;5.356;2022-09-30T09:01:43;14.60;;;11.07;;
24617;SDS011;12762;51.730;5.356;2022-09-30T09:04:13;14.67;;;10.40;;
24617;SDS011;12762;51.730;5.356;2022-09-30T09:09:32;12.13;;;9.03;;
24617;SDS011;12762;51.730;5.356;2022-09-30T09:17:44;12.30;;;9.70;;
24617;SDS011;12762;51.730;5.356;2022-09-30T09:20:54;14.63;;;9.60;;
24617;SDS011;12762;51.730;5.356;2022-09-30T09:23:23;13.73;;;10.30;;
24617;SDS011;12762;51.730;5.356;2022-09-30T09:25:51;16.00;;;10.23;;
24617;SDS011;12762;51.730;5.356;2022-09-30T09:30:56;13.00;;;8.87;;
24617;SDS011;12762;51.730;5.356;2022-09-30T09:33:27;10.93;;;8.67;;
24617;SDS011;12762;51.730;5.356;2022-09-30T09:41:43;10.03;;;7.70;;
24617;SDS011;12762;51.730;5.356;2022-09-30T09:47:08;11.30;;;7.37;;
24617;SDS011;12762;51.730;5.356;2022-09-30T09:50:03;11.30;;;7.40;;
24617;SDS011;12762;51.730;5.356;2022-09-30T09:55:23;11.10;;;7.03;;
24617;SDS011;12762;51.730;5.356;2022-09-30T09:58:06;8.13;;;5.73;;
24617;SDS011;12762;51.730;5.356;2022-09-30T10:00:41;8.13;;;6.03;;
24617;SDS011;12762;51.730;5.356;2022-09-30T10:03:22;8.53;;;6.63;;
24617;SDS011;12762;51.730;5.356;2022-09-30T10:08:24;9.17;;;6.23;;
24617;SDS011;12762;51.730;5.356;2022-09-30T10:10:52;8.13;;;6.50;;
24617;SDS011;12762;51.730;5.356;2022-09-30T10:13:25;9.10;;;5.83;;
24617;SDS011;12762;51.730;5.356;2022-09-30T10:15:58;8.60;;;5.93;;
24617;SDS011;12762;51.730;5.356;2022-09-30T10:18:34;6.80;;;5.10;;
24617;SDS011;12762;51.730;5.356;2022-09-30T10:21:06;7.37;;;4.97;;
24617;SDS011;12762;51.730;5.356;2022-09-30T10:23:45;8.27;;;5.50;;
24617;SDS011;12762;51.730;5.356;2022-09-30T10:28:53;8.57;;;5.10;;
24617;SDS011;12762;51.730;5.356;2022-09-30T10:36:48;7.53;;;4.70;;
24617;SDS011;12762;51.730;5.356;2022-09-30T10:39:26;6.80;;;4.40;;
24617;SDS011;12762;51.730;5.356;2022-09-30T10:44:56;6.63;;;3.87;;
24617;SDS011;12762;51.730;5.356;2022-09-30T10:47:29;5.13;;;3.43;;
24617;SDS011;12762;51.730;5.356;2022-09-30T10:50:09;5.70;;;3.20;;
24617;SDS011;12762;51.730;5.356;2022-09-30T10:52:39;3.50;;;2.60;;
24617;SDS011;12762;51.730;5.356;2022-09-30T10:57:47;4.77;;;3.10;;
24617;SDS011;12762;51.730;5.356;2022-09-30T11:00:17;6.90;;;2.93;;
24617;SDS011;12762;51.730;5.356;2022-09-30T11:02:55;4.50;;;3.30;;
24617;SDS011;12762;51.730;5.356;2022-09-30T11:05:35;3.73;;;2.13;;
24617;SDS011;12762;51.730;5.356;2022-09-30T11:13:56;5.17;;;2.27;;
24617;SDS011;12762;51.730;5.356;2022-09-30T11:16:32;3.77;;;2.43;;
24617;SDS011;12762;51.730;5.356;2022-09-30T11:19:26;2.80;;;2.20;;
24617;SDS011;12762;51.730;5.356;2022-09-30T11:21:59;3.17;;;2.03;;
24617;SDS011;12762;51.730;5.356;2022-09-30T11:24:47;3.37;;;2.27;;
24617;SDS011;12762;51.730;5.356;2022-09-30T11:33:13;3.17;;;1.70;;
24617;SDS011;12762;51.730;5.356;2022-09-30T11:41:41;3.73;;;1.70;;
24617;SDS011;12762;51.730;5.356;2022-09-30T11:58:07;2.40;;;1.50;;
24617;SDS011;12762;51.730;5.356;2022-09-30T12:01:13;4.70;;;1.80;;
24617;SDS011;12762;51.730;5.356;2022-09-30T12:03:46;6.03;;;1.70;;
24617;SDS011;12762;51.730;5.356;2022-09-30T12:06:32;1.73;;;1.37;;
24617;SDS011;12762;51.730;5.356;2022-09-30T12:09:04;4.47;;;1.70;;
24617;SDS011;12762;51.730;5.356;2022-09-30T12:11:52;6.67;;;2.10;;
24617;SDS011;12762;51.730;5.356;2022-09-30T12:14:27;3.10;;;1.80;;
24617;SDS011;12762;51.730;5.356;2022-09-30T12:17:00;3.00;;;1.57;;
24617;SDS011;12762;51.730;5.356;2022-09-30T12:19:42;3.87;;;1.90;;
24617;SDS011;12762;51.730;5.356;2022-09-30T12:24:43;2.30;;;1.60;;
24617;SDS011;12762;51.730;5.356;2022-09-30T12:27:24;2.77;;;1.47;;
24617;SDS011;12762;51.730;5.356;2022-09-30T12:29:54;2.80;;;1.60;;
24617;SDS011;12762;51.730;5.356;2022-09-30T12:35:35;5.93;;;2.00;;
24617;SDS011;12762;51.730;5.356;2022-09-30T12:38:29;4.27;;;2.10;;
24617;SDS011;12762;51.730;5.356;2022-09-30T12:49:40;3.50;;;2.40;;
24617;SDS011;12762;51.730;5.356;2022-09-30T12:52:13;2.83;;;1.80;;
24617;SDS011;12762;51.730;5.356;2022-09-30T12:54:47;3.03;;;2.20;;
24617;SDS011;12762;51.730;5.356;2022-09-30T12:57:19;3.90;;;2.10;;
24617;SDS011;12762;51.730;5.356;2022-09-30T12:59:54;4.50;;;2.30;;
24617;SDS011;12762;51.730;5.356;2022-09-30T13:02:33;3.50;;;2.40;;
24617;SDS011;12762;51.730;5.356;2022-09-30T13:05:30;3.13;;;2.03;;
24617;SDS011;12762;51.730;5.356;2022-09-30T13:13:11;3.50;;;1.90;;
24617;SDS011;12762;51.730;5.356;2022-09-30T13:15:42;3.17;;;1.90;;
24617;SDS011;12762;51.730;5.356;2022-09-30T13:20:50;3.80;;;1.70;;
24617;SDS011;12762;51.730;5.356;2022-09-30T13:23:43;4.20;;;2.00;;
24617;SDS011;12762;51.730;5.356;2022-09-30T13:28:54;3.43;;;1.50;;
24617;SDS011;12762;51.730;5.356;2022-09-30T13:34:29;3.83;;;2.13;;
24617;SDS011;12762;51.730;5.356;2022-09-30T13:37:04;4.30;;;2.23;;
24617;SDS011;12762;51.730;5.356;2022-09-30T13:42:03;4.00;;;1.80;;
24617;SDS011;12762;51.730;5.356;2022-09-30T13:50:15;4.23;;;1.80;;
24617;SDS011;12762;51.730;5.356;2022-09-30T13:53:05;2.77;;;1.70;;
24617;SDS011;12762;51.730;5.356;2022-09-30T13:55:42;3.37;;;1.60;;
24617;SDS011;12762;51.730;5.356;2022-09-30T13:58:21;2.37;;;1.60;;
24617;SDS011;12762;51.730;5.356;2022-09-30T14:06:19;7.00;;;1.60;;
24617;SDS011;12762;51.730;5.356;2022-09-30T14:09:11;3.50;;;1.60;;
24617;SDS011;12762;51.730;5.356;2022-09-30T14:14:41;4.30;;;2.07;;
24617;SDS011;12762;51.730;5.356;2022-09-30T14:20:26;4.20;;;1.70;;
24617;SDS011;12762;51.730;5.356;2022-09-30T14:23:17;4.23;;;1.60;;
24617;SDS011;12762;51.730;5.356;2022-09-30T14:28:32;4.00;;;1.87;;
24617;SDS011;12762;51.730;5.356;2022-09-30T14:31:21;6.30;;;2.10;;
24617;SDS011;12762;51.730;5.356;2022-09-30T14:33:49;3.07;;;1.70;;
24617;SDS011;12762;51.730;5.356;2022-09-30T14:36:18;2.30;;;1.40;;
24617;SDS011;12762;51.730;5.356;2022-09-30T14:38:48;3.93;;;1.70;;
24617;SDS011;12762;51.730;5.356;2022-09-30T14:41:19;2.60;;;1.50;;
24617;SDS011;12762;51.730;5.356;2022-09-30T14:43:50;4.03;;;1.63;;
24617;SDS011;12762;51.730;5.356;2022-09-30T14:46:29;4.57;;;1.73;;
24617;SDS011;12762;51.730;5.356;2022-09-30T14:49:01;2.90;;;1.50;;
24617;SDS011;12762;51.730;5.356;2022-09-30T14:51:42;3.83;;;1.50;;
24617;SDS011;12762;51.730;5.356;2022-09-30T14:54:19;3.17;;;1.20;;
24617;SDS011;12762;51.730;5.356;2022-09-30T14:56:51;4.03;;;1.77;;
24617;SDS011;12762;51.730;5.356;2022-09-30T15:01:53;4.83;;;2.00;;
24617;SDS011;12762;51.730;5.356;2022-09-30T15:04:46;5.07;;;1.80;;
24617;SDS011;12762;51.730;5.356;2022-09-30T15:07:16;4.70;;;1.57;;
24617;SDS011;12762;51.730;5.356;2022-09-30T15:09:44;2.33;;;1.37;;
24617;SDS011;12762;51.730;5.356;2022-09-30T15:12:14;3.53;;;1.60;;
24617;SDS011;12762;51.730;5.356;2022-09-30T15:14:53;4.57;;;1.83;;
24617;SDS011;12762;51.730;5.356;2022-09-30T15:17:28;3.57;;;1.30;;
24617;SDS011;12762;51.730;5.356;2022-09-30T15:20:01;3.27;;;1.20;;
24617;SDS011;12762;51.730;5.356;2022-09-30T15:22:59;4.57;;;1.50;;
24617;SDS011;12762;51.730;5.356;2022-09-30T15:25:29;2.57;;;1.40;;
24617;SDS011;12762;51.730;5.356;2022-09-30T15:27:56;4.07;;;1.40;;
24617;SDS011;12762;51.730;5.356;2022-09-30T15:30:25;1.93;;;1.23;;
24617;SDS011;12762;51.730;5.356;2022-09-30T15:32:58;3.30;;;1.17;;
24617;SDS011;12762;51.730;5.356;2022-09-30T15:35:27;3.33;;;1.40;;
24617;SDS011;12762;51.730;5.356;2022-09-30T15:38:09;2.67;;;1.47;;
24617;SDS011;12762;51.730;5.356;2022-09-30T15:40:46;1.60;;;1.10;;
24617;SDS011;12762;51.730;5.356;2022-09-30T15:43:28;2.13;;;1.20;;
24617;SDS011;12762;51.730;5.356;2022-09-30T15:46:14;3.00;;;1.30;;
24617;SDS011;12762;51.730;5.356;2022-09-30T15:48:44;2.13;;;1.10;;
24617;SDS011;12762;51.730;5.356;2022-09-30T15:51:25;2.30;;;1.40;;
24617;SDS011;12762;51.730;5.356;2022-09-30T15:54:45;3.20;;;1.30;;
24617;SDS011;12762;51.730;5.356;2022-09-30T15:56:59;3.97;;;1.30;;
24617;SDS011;12762;51.730;5.356;2022-09-30T16:02:25;5.23;;;1.67;;
24617;SDS011;12762;51.730;5.356;2022-09-30T16:04:53;4.70;;;1.60;;
24617;SDS011;12762;51.730;5.356;2022-09-30T16:07:21;2.37;;;1.10;;
24617;SDS011;12762;51.730;5.356;2022-09-30T16:09:54;2.53;;;1.37;;
24617;SDS011;12762;51.730;5.356;2022-09-30T16:12:23;3.77;;;1.53;;
24617;SDS011;12762;51.730;5.356;2022-09-30T16:15:07;3.27;;;1.50;;
24617;SDS011;12762;51.730;5.356;2022-09-30T16:17:43;2.73;;;1.43;;
24617;SDS011;12762;51.730;5.356;2022-09-30T16:25:21;3.60;;;1.50;;
24617;SDS011;12762;51.730;5.356;2022-09-30T16:30:41;2.23;;;1.70;;
24617;SDS011;12762;51.730;5.356;2022-09-30T16:33:14;3.40;;;1.73;;
24617;SDS011;12762;51.730;5.356;2022-09-30T16:35:42;5.37;;;1.67;;
24617;SDS011;12762;51.730;5.356;2022-09-30T16:38:11;4.93;;;1.70;;
24617;SDS011;12762;51.730;5.356;2022-09-30T16:40:39;2.27;;;1.60;;
24617;SDS011;12762;51.730;5.356;2022-09-30T16:43:06;3.33;;;1.70;;
24617;SDS011;12762;51.730;5.356;2022-09-30T16:45:36;2.70;;;1.43;;
24617;SDS011;12762;51.730;5.356;2022-09-30T16:48:10;5.33;;;1.80;;
24617;SDS011;12762;51.730;5.356;2022-09-30T16:50:42;3.67;;;1.60;;
24617;SDS011;12762;51.730;5.356;2022-09-30T16:53:14;4.23;;;1.47;;
24617;SDS011;12762;51.730;5.356;2022-09-30T16:55:41;3.20;;;1.80;;
24617;SDS011;12762;51.730;5.356;2022-09-30T16:58:09;4.30;;;1.83;;
24617;SDS011;12762;51.730;5.356;2022-09-30T17:00:39;3.13;;;1.90;;
24617;SDS011;12762;51.730;5.356;2022-09-30T17:03:13;4.00;;;2.00;;
24617;SDS011;12762;51.730;5.356;2022-09-30T17:05:42;3.33;;;1.90;;
24617;SDS011;12762;51.730;5.356;2022-09-30T17:08:11;3.73;;;1.87;;
24617;SDS011;12762;51.730;5.356;2022-09-30T17:10:43;4.30;;;1.80;;
24617;SDS011;12762;51.730;5.356;2022-09-30T17:13:13;4.73;;;2.17;;
24617;SDS011;12762;51.730;5.356;2022-09-30T17:15:49;2.43;;;1.77;;
24617;SDS011;12762;51.730;5.356;2022-09-30T17:18:17;3.50;;;2.23;;
24617;SDS011;12762;51.730;5.356;2022-09-30T17:20:45;4.60;;;2.20;;
24617;SDS011;12762;51.730;5.356;2022-09-30T17:23:18;4.93;;;2.27;;
24617;SDS011;12762;51.730;5.356;2022-09-30T17:25:46;4.27;;;2.20;;
24617;SDS011;12762;51.730;5.356;2022-09-30T17:28:14;3.93;;;2.30;;
24617;SDS011;12762;51.730;5.356;2022-09-30T17:30:45;4.60;;;2.20;;
24617;SDS011;12762;51.730;5.356;2022-09-30T17:33:13;2.87;;;1.97;;
24617;SDS011;12762;51.730;5.356;2022-09-30T17:35:40;4.97;;;2.27;;
24617;SDS011;12762;51.730;5.356;2022-09-30T17:38:07;4.30;;;2.30;;
24617;SDS011;12762;51.730;5.356;2022-09-30T17:40:36;4.23;;;2.13;;
24617;SDS011;12762;51.730;5.356;2022-09-30T17:43:22;3.67;;;1.90;;
24617;SDS011;12762;51.730;5.356;2022-09-30T17:45:49;6.27;;;2.53;;
24617;SDS011;12762;51.730;5.356;2022-09-30T17:48:17;4.77;;;2.47;;
24617;SDS011;12762;51.730;5.356;2022-09-30T17:50:47;6.20;;;2.90;;
24617;SDS011;12762;51.730;5.356;2022-09-30T17:53:22;12.13;;;2.63;;
24617;SDS011;12762;51.730;5.356;2022-09-30T17:55:59;4.00;;;2.70;;
24617;SDS011;12762;51.730;5.356;2022-09-30T17:58:27;6.43;;;2.57;;
24617;SDS011;12762;51.730;5.356;2022-09-30T18:00:54;4.40;;;2.90;;
24617;SDS011;12762;51.730;5.356;2022-09-30T18:03:25;5.93;;;3.20;;
24617;SDS011;12762;51.730;5.356;2022-09-30T18:05:56;5.77;;;3.17;;
24617;SDS011;12762;51.730;5.356;2022-09-30T18:08:24;4.47;;;2.90;;
24617;SDS011;12762;51.730;5.356;2022-09-30T18:10:52;4.03;;;2.70;;
24617;SDS011;12762;51.730;5.356;2022-09-30T18:13:22;5.77;;;2.93;;
24617;SDS011;12762;51.730;5.356;2022-09-30T18:15:49;6.97;;;3.37;;
24617;SDS011;12762;51.730;5.356;2022-09-30T18:18:16;4.30;;;3.20;;
24617;SDS011;12762;51.730;5.356;2022-09-30T18:20:46;6.43;;;3.00;;